Eleanor Hadley — WDI9237 — position and weather

sailwx.info

Track history (hours):
 
Tides and Currents Weather Stations Pressure Air Temp Water Temp Dewpoint Dewpoint Depression Visibility Wind Speed Wind Dir Waves Ship Positions

Eleanor Hadley

Owner: Genesis Marine, LLC, Houston, TX. More information available from US FCC via Universal Licensing System and Coast Guard Vessel Documentation Center.

Last reported at 2017-Nov-06 02:31 UTC. Time now 2017-Nov-24 03:47 UTC.
Position N 32°18' W 090°55'.
Warning: this ship's position is 18 days out of date.

Length 26 m; draft 2.9 m.

Type: Ship (hazmat cat B). MMSI: 367746670.

Date/timePositionNaut miles runAvg speedWind from/ knotsBaromVisibWave heightAir tempDewpointWater temp
2017-Nov-06 02:31N 32°18' W 090°55'1 2.9
2017-Nov-06 02:00N 32°17' W 090°56'2 4.8
2017-Nov-06 01:31N 32°16' W 090°58'2 3.9
2017-Nov-06 01:01N 32°14' W 090°59'2 4.7
2017-Nov-06 00:31N 32°11' W 090°60'2 4.5
2017-Nov-06 00:01N 32°09' W 091°00'2 3.9
2017-Nov-05 23:30N 32°07' W 091°01'2 3.9
2017-Nov-05 23:00N 32°08' W 091°03'2 4.5
2017-Nov-05 22:30N 32°08' W 091°06'5 4.2
2017-Nov-05 21:16N 32°03' W 091°03'2 5.5
2017-Nov-05 20:55N 32°01' W 091°04'  
2017-Oct-31 01:11N 29°51' W 091°55'2 6.5
2017-Oct-31 00:48N 29°50' W 091°57'2 6.5
2017-Oct-31 00:30N 29°50' W 091°60'3 6.9
2017-Oct-31 00:00N 29°49' W 092°03'3 6.5
2017-Oct-30 23:31N 29°48' W 092°07'3 6.5
2017-Oct-30 23:01N 29°47' W 092°10'2 3.9
2017-Oct-30 22:31N 29°47' W 092°13'1 1.5
2017-Oct-30 22:01N 29°48' W 092°13'3 6.2
2017-Oct-30 21:30N 29°49' W 092°17'3 5.7
2017-Oct-30 21:00N 29°50' W 092°19'38 6.0
2017-Oct-30 14:40N 29°56' W 093°02'1 6.3
2017-Oct-30 14:31N 29°56' W 093°04'5 5.5
2017-Oct-30 13:31N 29°56' W 093°10'3 5.9
2017-Oct-30 13:00N 29°59' W 093°12'3 5.3
2017-Oct-30 12:31N 30°01' W 093°14'2 4.1
2017-Oct-30 12:01N 30°02' W 093°16'2 4.5
2017-Oct-30 11:31N 30°04' W 093°16'1 2.8
2017-Oct-30 11:00N 30°05' W 093°18'1 1.5
2017-Oct-30 10:31N 30°06' W 093°18'1 1.1
2017-Oct-30 10:01N 30°06' W 093°19'0 0.0
2017-Oct-30 09:31N 30°06' W 093°19'0 0.0
2017-Oct-30 09:01N 30°06' W 093°19'0 0.0
2017-Oct-30 08:31N 30°06' W 093°19'0 0.0
2017-Oct-30 08:00N 30°06' W 093°19'0 0.0
2017-Oct-30 07:31N 30°06' W 093°19'0 0.0
2017-Oct-30 07:01N 30°06' W 093°19'0 0.0
2017-Oct-30 06:31N 30°06' W 093°19'0 0.0
2017-Oct-30 06:01N 30°06' W 093°19'0 0.0
2017-Oct-30 05:31N 30°06' W 093°19'1 2.5
2017-Oct-30 05:01N 30°05' W 093°20'2 4.8
2017-Oct-30 04:31N 30°04' W 093°22'3 6.0
2017-Oct-30 04:01N 30°04' W 093°25'2 4.0
2017-Oct-30 03:31N 30°04' W 093°28'1 1.8
2017-Oct-30 03:01N 30°04' W 093°29'3 5.4
2017-Oct-30 02:31N 30°04' W 093°32'3 5.8
2017-Oct-30 02:00N 30°04' W 093°35'3 5.9
2017-Oct-30 01:30N 30°04' W 093°39'3 5.8
2017-Oct-30 00:58N 30°03' W 093°42'2 4.8
2017-Oct-30 00:30N 30°02' W 093°44'  
2017-Oct-27 10:47N 29°30' W 094°52'3 7.6
2017-Oct-27 10:24N 29°32' W 094°54'2 4.9
2017-Oct-27 10:00N 29°34' W 094°55'4 7.5
2017-Oct-27 09:31N 29°37' W 094°58'4 7.5
2017-Oct-27 09:01N 29°41' W 094°59'4 6.3
2017-Oct-27 08:23N 29°44' W 095°02'4 2.7
2017-Oct-27 06:59N 29°45' W 095°06'0 0.2
2017-Oct-27 06:29N 29°45' W 095°05'1 2.4
2017-Oct-27 05:53N 29°46' W 095°07'0 0.0
2017-Oct-27 05:28N 29°46' W 095°07'0 0.0
2017-Oct-27 04:59N 29°46' W 095°07'0 0.0
2017-Oct-27 04:30N 29°46' W 095°07'0 0.0
2017-Oct-27 04:00N 29°46' W 095°07'0 0.0
2017-Oct-27 03:30N 29°46' W 095°07'0 0.0
2017-Oct-27 02:48N 29°46' W 095°07'  
Track history (hours):
 
Tides and Currents Weather Stations Pressure Air Temp Water Temp Dewpoint Dewpoint Depression Visibility Wind Speed Wind Dir Waves Ship Positions

Eleanor Hadley

Owner: Genesis Marine, LLC, Houston, TX. More information available from US FCC via Universal Licensing System and Coast Guard Vessel Documentation Center.

Last reported at 2017-Nov-06 02:31 UTC. Time now 2017-Nov-24 03:47 UTC.
Position N 32°18' W 090°55'.
Warning: this ship's position is 18 days out of date.

Length 26 m; draft 2.9 m.

Type: Ship (hazmat cat B). MMSI: 367746670.

Date/timePositionNaut miles runAvg speedWind from/ knotsBaromVisibWave heightAir tempDewpointWater temp
2017-Nov-06 02:31N 32°18' W 090°55'1 2.9
2017-Nov-06 02:00N 32°17' W 090°56'2 4.8
2017-Nov-06 01:31N 32°16' W 090°58'2 3.9
2017-Nov-06 01:01N 32°14' W 090°59'2 4.7
2017-Nov-06 00:31N 32°11' W 090°60'2 4.5
2017-Nov-06 00:01N 32°09' W 091°00'2 3.9
2017-Nov-05 23:30N 32°07' W 091°01'2 3.9
2017-Nov-05 23:00N 32°08' W 091°03'2 4.5
2017-Nov-05 22:30N 32°08' W 091°06'5 4.2
2017-Nov-05 21:16N 32°03' W 091°03'2 5.5
2017-Nov-05 20:55N 32°01' W 091°04'  
2017-Oct-31 01:11N 29°51' W 091°55'2 6.5
2017-Oct-31 00:48N 29°50' W 091°57'2 6.5
2017-Oct-31 00:30N 29°50' W 091°60'3 6.9
2017-Oct-31 00:00N 29°49' W 092°03'3 6.5
2017-Oct-30 23:31N 29°48' W 092°07'3 6.5
2017-Oct-30 23:01N 29°47' W 092°10'2 3.9
2017-Oct-30 22:31N 29°47' W 092°13'1 1.5
2017-Oct-30 22:01N 29°48' W 092°13'3 6.2
2017-Oct-30 21:30N 29°49' W 092°17'3 5.7
2017-Oct-30 21:00N 29°50' W 092°19'38 6.0
2017-Oct-30 14:40N 29°56' W 093°02'1 6.3
2017-Oct-30 14:31N 29°56' W 093°04'5 5.5
2017-Oct-30 13:31N 29°56' W 093°10'3 5.9
2017-Oct-30 13:00N 29°59' W 093°12'3 5.3
2017-Oct-30 12:31N 30°01' W 093°14'2 4.1
2017-Oct-30 12:01N 30°02' W 093°16'2 4.5
2017-Oct-30 11:31N 30°04' W 093°16'1 2.8
2017-Oct-30 11:00N 30°05' W 093°18'1 1.5
2017-Oct-30 10:31N 30°06' W 093°18'1 1.1
2017-Oct-30 10:01N 30°06' W 093°19'0 0.0
2017-Oct-30 09:31N 30°06' W 093°19'0 0.0
2017-Oct-30 09:01N 30°06' W 093°19'0 0.0
2017-Oct-30 08:31N 30°06' W 093°19'0 0.0
2017-Oct-30 08:00N 30°06' W 093°19'0 0.0
2017-Oct-30 07:31N 30°06' W 093°19'0 0.0
2017-Oct-30 07:01N 30°06' W 093°19'0 0.0
2017-Oct-30 06:31N 30°06' W 093°19'0 0.0
2017-Oct-30 06:01N 30°06' W 093°19'0 0.0
2017-Oct-30 05:31N 30°06' W 093°19'1 2.5
2017-Oct-30 05:01N 30°05' W 093°20'2 4.8
2017-Oct-30 04:31N 30°04' W 093°22'3 6.0
2017-Oct-30 04:01N 30°04' W 093°25'2 4.0
2017-Oct-30 03:31N 30°04' W 093°28'1 1.8
2017-Oct-30 03:01N 30°04' W 093°29'3 5.4
2017-Oct-30 02:31N 30°04' W 093°32'3 5.8
2017-Oct-30 02:00N 30°04' W 093°35'3 5.9
2017-Oct-30 01:30N 30°04' W 093°39'3 5.8
2017-Oct-30 00:58N 30°03' W 093°42'2 4.8
2017-Oct-30 00:30N 30°02' W 093°44'  
2017-Oct-27 10:47N 29°30' W 094°52'3 7.6
2017-Oct-27 10:24N 29°32' W 094°54'2 4.9
2017-Oct-27 10:00N 29°34' W 094°55'4 7.5
2017-Oct-27 09:31N 29°37' W 094°58'4 7.5
2017-Oct-27 09:01N 29°41' W 094°59'4 6.3
2017-Oct-27 08:23N 29°44' W 095°02'4 2.7
2017-Oct-27 06:59N 29°45' W 095°06'0 0.2
2017-Oct-27 06:29N 29°45' W 095°05'1 2.4
2017-Oct-27 05:53N 29°46' W 095°07'0 0.0
2017-Oct-27 05:28N 29°46' W 095°07'0 0.0
2017-Oct-27 04:59N 29°46' W 095°07'0 0.0
2017-Oct-27 04:30N 29°46' W 095°07'0 0.0
2017-Oct-27 04:00N 29°46' W 095°07'0 0.0
2017-Oct-27 03:30N 29°46' W 095°07'0 0.0
2017-Oct-27 02:48N 29°46' W 095°07'  

Dump ship's entire track history